Time;durP1;ratioP1;P1;durP2;ratioP2;P2;SDS_P1;SDS_P2;PMS_P1;PMS_P2;Temp;Humidity;BMP_temperature;BMP_pressure;BME280_temperature;BME280_humidity;BME280_pressure;Samples;Min_cycle;Max_cycle;Signal;HPM_P1;HPM_P2
2021/09/23 00:00:46;;;;;;;2.45;1.65;;;;;;;26.45;31.98;97371.72;5028803;28;20029;-28
2021/09/23 00:03:21;;;;;;;2.08;1.70;;;;;;;26.44;31.92;97370.00;5035934;28;20028;-30
2021/09/23 00:05:46;;;;;;;3.10;1.85;;;;;;;26.45;32.07;97372.56;5036261;28;20037;-29
2021/09/23 00:08:12;;;;;;;2.05;1.50;;;;;;;26.45;32.07;97371.72;5035089;28;20044;-30
2021/09/23 00:10:38;;;;;;;1.75;1.40;;;;;;;26.45;31.94;97371.72;5031933;28;20119;-30
2021/09/23 00:13:04;;;;;;;2.05;1.70;;;;;;;26.46;31.96;97370.78;5034945;28;20593;-28
2021/09/23 00:15:29;;;;;;;2.47;1.60;;;;;;;26.42;32.00;97361.34;5037304;28;20052;-29
2021/09/23 00:18:00;;;;;;;2.28;1.45;;;;;;;26.44;31.99;97364.75;5035303;28;20013;-29
2021/09/23 00:20:28;;;;;;;3.58;1.40;;;;;;;26.45;32.07;97366.47;5037795;28;20060;-29
2021/09/23 00:22:53;;;;;;;2.20;1.58;;;;;;;26.44;32.02;97359.50;5035257;28;20031;-29
2021/09/23 00:25:19;;;;;;;2.50;1.60;;;;;;;26.42;32.01;97345.56;5031199;28;20028;-29
2021/09/23 00:27:45;;;;;;;4.07;1.60;;;;;;;26.44;32.07;97356.88;5032055;28;20030;-28
2021/09/23 00:30:10;;;;;;;1.48;1.35;;;;;;;26.44;32.11;97355.13;5032432;28;20029;-27
2021/09/23 00:32:36;;;;;;;2.45;1.45;;;;;;;26.45;31.99;97348.06;5037390;28;20037;-29
2021/09/23 00:35:02;;;;;;;1.52;1.42;;;;;;;26.44;32.00;97349.00;5032711;28;20061;-32
2021/09/23 00:37:28;;;;;;;1.50;1.40;;;;;;;26.44;32.16;97341.09;5026156;28;20021;-27
2021/09/23 00:39:53;;;;;;;1.80;1.45;;;;;;;26.44;32.02;97343.75;5029508;28;20031;-28
2021/09/23 00:42:18;;;;;;;1.88;1.40;;;;;;;26.44;32.23;97347.22;5031327;28;20036;-29
2021/09/23 00:44:58;;;;;;;2.42;1.60;;;;;;;26.44;32.01;97344.59;5028224;28;20025;-29
2021/09/23 00:47:23;;;;;;;1.70;1.35;;;;;;;26.45;32.12;97340.19;5025350;28;20515;-28
2021/09/23 00:49:49;;;;;;;1.63;1.23;;;;;;;26.45;32.06;97329.66;5031381;28;20115;-29
2021/09/23 00:52:15;;;;;;;2.25;1.58;;;;;;;26.44;31.99;97328.84;5024763;28;20028;-29
2021/09/23 00:54:40;;;;;;;2.47;1.50;;;;;;;26.44;32.00;97338.47;5026122;28;20032;-27
2021/09/23 00:57:05;;;;;;;1.63;1.35;;;;;;;26.43;32.08;97337.63;5026421;28;20119;-29
2021/09/23 00:59:31;;;;;;;1.48;1.38;;;;;;;26.43;32.15;97342.03;5026931;28;20049;-28
2021/09/23 01:01:56;;;;;;;2.33;1.45;;;;;;;26.44;32.01;97335.84;5021978;28;20033;-27
2021/09/23 01:04:21;;;;;;;2.28;1.25;;;;;;;26.45;32.16;97332.28;5026129;28;20059;-29
2021/09/23 01:06:50;;;;;;;2.30;1.55;;;;;;;26.44;32.20;97335.84;5027661;28;20499;-29
2021/09/23 01:09:16;;;;;;;1.83;1.17;;;;;;;26.44;32.08;97327.97;5031349;28;20205;-29
2021/09/23 01:11:41;;;;;;;1.55;1.30;;;;;;;26.45;32.13;97329.66;5032911;28;20521;-27
2021/09/23 01:14:07;;;;;;;1.48;1.27;;;;;;;26.44;32.10;97327.97;5031996;28;20629;-30
2021/09/23 01:16:32;;;;;;;1.77;1.35;;;;;;;26.45;32.09;97324.41;5032273;28;20048;-28
2021/09/23 01:18:57;;;;;;;2.20;1.42;;;;;;;26.44;32.22;97322.72;5033456;28;20022;-31
2021/09/23 01:21:23;;;;;;;4.38;1.45;;;;;;;26.45;32.12;97327.03;5033417;28;20098;-28
2021/09/23 01:23:48;;;;;;;1.45;1.20;;;;;;;26.44;32.16;97330.59;5033620;28;20037;-31
2021/09/23 01:26:18;;;;;;;1.52;1.00;;;;;;;26.44;32.28;97327.97;5030189;28;20038;-29
2021/09/23 01:28:44;;;;;;;1.45;1.25;;;;;;;26.42;32.05;97324.53;5036697;28;20086;-29
2021/09/23 01:31:09;;;;;;;3.25;1.40;;;;;;;26.44;32.22;97327.97;5032753;28;20040;-32
2021/09/23 01:33:37;;;;;;;1.42;1.25;;;;;;;26.43;32.09;97324.47;5028884;28;20028;-29
2021/09/23 01:36:03;;;;;;;2.20;1.40;;;;;;;26.43;32.10;97327.09;5032257;28;20025;-27
2021/09/23 01:38:28;;;;;;;3.10;1.50;;;;;;;26.43;32.04;97321.00;5030812;28;20025;-28
2021/09/23 01:40:54;;;;;;;2.45;1.40;;;;;;;26.42;32.16;97314.91;5032603;28;20028;-29
2021/09/23 01:43:20;;;;;;;1.67;1.17;;;;;;;26.42;32.21;97317.53;5031782;28;20025;-29
2021/09/23 01:45:46;;;;;;;2.45;1.13;;;;;;;26.43;32.08;97319.22;5033085;28;20301;-30
2021/09/23 01:48:11;;;;;;;2.08;1.38;;;;;;;26.42;32.05;97312.28;5033017;28;20026;-30
2021/09/23 01:50:36;;;;;;;2.15;1.20;;;;;;;26.42;32.14;97314.03;5032531;28;20032;-27
2021/09/23 01:53:02;;;;;;;1.23;1.00;;;;;;;26.42;32.25;97314.91;5033684;28;20029;-29
2021/09/23 01:55:27;;;;;;;1.20;1.10;;;;;;;26.43;32.29;97306.09;5033295;28;20033;-29
2021/09/23 01:57:53;;;;;;;1.40;1.13;;;;;;;26.43;32.17;97310.50;5028596;28;20076;-28
2021/09/23 02:00:18;;;;;;;1.40;1.08;;;;;;;26.43;32.14;97294.75;5032243;28;20662;-29
2021/09/23 02:02:44;;;;;;;1.20;1.10;;;;;;;26.43;32.21;97302.63;5034943;28;20029;-28
2021/09/23 02:05:09;;;;;;;1.20;1.10;;;;;;;26.42;32.18;97288.63;5030390;28;20029;-29
2021/09/23 02:07:35;;;;;;;1.10;1.00;;;;;;;26.43;32.15;97287.69;5034662;28;20036;-28
2021/09/23 02:10:00;;;;;;;2.92;1.10;;;;;;;26.42;31.92;97282.50;5032376;28;20057;-29
2021/09/23 02:12:25;;;;;;;1.40;1.30;;;;;;;26.42;32.14;97291.25;5031465;28;20071;-29
2021/09/23 02:14:51;;;;;;;4.72;1.10;;;;;;;26.42;32.12;97298.25;5030451;28;20036;-28
2021/09/23 02:17:16;;;;;;;0.90;0.90;;;;;;;26.41;32.13;97286.94;5031756;28;20029;-29
2021/09/23 02:19:45;;;;;;;1.85;1.27;;;;;;;26.42;32.18;97291.25;5031040;28;20033;-29
2021/09/23 02:22:10;;;;;;;1.60;1.17;;;;;;;26.42;32.10;97298.25;5030514;28;20029;-29
2021/09/23 02:24:35;;;;;;;4.95;1.80;;;;;;;26.43;32.33;97294.75;5037682;28;20024;-30
2021/09/23 02:27:01;;;;;;;2.30;1.35;;;;;;;26.41;32.38;97291.31;5032792;28;20029;-31
2021/09/23 02:29:26;;;;;;;3.65;1.20;;;;;;;26.41;32.31;97286.06;5034041;28;20029;-32
2021/09/23 02:31:52;;;;;;;1.80;1.10;;;;;;;26.41;32.33;97280.81;5033834;28;20420;-31
2021/09/23 02:34:17;;;;;;;1.10;1.00;;;;;;;26.40;32.12;97285.22;5035786;28;20039;-31
2021/09/23 02:36:42;;;;;;;2.03;1.30;;;;;;;26.40;32.38;97279.97;5028998;28;20194;-27
2021/09/23 02:39:08;;;;;;;2.55;1.40;;;;;;;26.40;32.45;97279.97;5029916;28;20043;-27
2021/09/23 02:41:33;;;;;;;1.48;1.23;;;;;;;26.40;32.39;97284.38;5030796;28;20044;-29
2021/09/23 02:43:59;;;;;;;1.35;1.20;;;;;;;26.41;32.32;97276.41;5036109;28;20029;-30
2021/09/23 02:46:25;;;;;;;2.95;1.27;;;;;;;26.40;32.42;97272.09;5033463;28;20466;-28
2021/09/23 02:48:50;;;;;;;2.83;1.15;;;;;;;26.40;32.28;97264.22;5036045;28;20040;-31
2021/09/23 02:51:16;;;;;;;1.58;1.10;;;;;;;26.41;32.34;97257.16;5035024;28;20037;-29
2021/09/23 02:53:43;;;;;;;2.88;1.38;;;;;;;26.41;32.36;97257.16;5033741;28;20099;-27
2021/09/23 02:56:09;;;;;;;1.20;1.08;;;;;;;26.41;32.28;97249.28;5036440;28;20094;-33
2021/09/23 02:58:34;;;;;;;1.40;0.90;;;;;;;26.40;32.53;97247.56;5034995;28;20029;-29
2021/09/23 03:00:59;;;;;;;2.22;1.25;;;;;;;26.39;32.39;97241.47;5035766;28;20033;-31
2021/09/23 03:03:25;;;;;;;2.97;1.50;;;;;;;26.39;32.24;97230.13;5035787;28;20029;-29
2021/09/23 03:05:50;;;;;;;3.55;1.10;;;;;;;26.40;32.23;97221.31;5036680;28;20407;-30
2021/09/23 03:08:16;;;;;;;3.33;1.27;;;;;;;26.39;32.30;97217.81;5033061;28;20037;-29
2021/09/23 03:10:41;;;;;;;1.20;1.10;;;;;;;26.39;32.33;97207.31;5033661;28;20033;-29
2021/09/23 03:13:06;;;;;;;2.75;1.20;;;;;;;26.39;32.30;97209.94;5031005;28;20048;-29
2021/09/23 03:15:32;;;;;;;2.03;1.30;;;;;;;26.38;32.33;97207.41;5037783;28;20033;-31
2021/09/23 03:17:57;;;;;;;1.55;0.90;;;;;;;26.39;32.33;97219.59;5036919;28;20103;-31
2021/09/23 03:20:24;;;;;;;2.63;1.30;;;;;;;26.39;32.32;97209.09;5035853;28;20119;-28
2021/09/23 03:22:51;;;;;;;3.42;1.08;;;;;;;26.39;32.40;97225.69;5037610;28;20424;-29
2021/09/23 03:25:16;;;;;;;1.65;1.08;;;;;;;26.40;32.33;97216.03;5035133;28;20021;-30
2021/09/23 03:27:43;;;;;;;1.10;1.00;;;;;;;26.38;32.30;97213.50;5033599;28;20032;-31
2021/09/23 03:30:09;;;;;;;1.30;1.20;;;;;;;26.38;32.27;97207.41;5032174;28;20037;-29
2021/09/23 03:32:34;;;;;;;1.08;0.98;;;;;;;26.38;32.41;97217.91;5034313;28;20115;-30
2021/09/23 03:35:00;;;;;;;1.13;1.00;;;;;;;26.38;32.34;97208.22;5035784;28;20075;-30
2021/09/23 03:37:25;;;;;;;1.20;0.95;;;;;;;26.38;32.42;97217.91;5032401;28;20864;-29
2021/09/23 03:39:50;;;;;;;1.10;1.00;;;;;;;26.38;32.38;97220.53;5036052;28;20040;-30
2021/09/23 03:42:16;;;;;;;1.48;1.20;;;;;;;26.39;32.44;97219.59;5032036;28;20064;-28
2021/09/23 03:44:41;;;;;;;1.17;1.08;;;;;;;26.39;32.35;97209.94;5035318;28;20410;-28
2021/09/23 03:47:07;;;;;;;1.20;1.10;;;;;;;26.38;32.36;97202.97;5037378;28;20701;-29
2021/09/23 03:49:32;;;;;;;2.28;1.10;;;;;;;26.38;32.36;97199.53;5033656;28;20541;-30
2021/09/23 03:51:57;;;;;;;2.05;1.08;;;;;;;26.38;32.36;97183.75;5036876;28;20622;-31
2021/09/23 03:54:23;;;;;;;1.40;1.10;;;;;;;26.38;32.71;97181.13;5034391;28;20029;-29
2021/09/23 03:56:48;;;;;;;1.73;0.98;;;;;;;26.38;32.34;97189.84;5033544;28;20803;-32
2021/09/23 03:59:14;;;;;;;1.65;1.30;;;;;;;26.38;32.56;97191.63;5036048;28;20489;-30
2021/09/23 04:01:39;;;;;;;0.70;0.70;;;;;;;26.37;32.46;97197.78;5034875;28;20029;-31
2021/09/23 04:04:05;;;;;;;0.80;0.80;;;;;;;26.37;31.85;97195.16;5034651;28;20024;-27
2021/09/23 04:06:33;;;;;;;1.55;1.15;;;;;;;26.37;32.41;97190.78;5031556;28;20048;-27
2021/09/23 04:08:58;;;;;;;1.05;0.93;;;;;;;26.35;32.46;97188.22;5034932;28;20029;-28
2021/09/23 04:11:24;;;;;;;1.05;1.00;;;;;;;26.35;32.51;97196.09;5038124;28;20400;-28
2021/09/23 04:13:49;;;;;;;1.80;1.10;;;;;;;26.34;32.32;97186.53;5035993;28;20036;-28
2021/09/23 04:16:15;;;;;;;4.00;1.08;;;;;;;26.35;32.39;97190.84;5031931;28;20037;-27
2021/09/23 04:18:40;;;;;;;4.65;1.23;;;;;;;26.35;32.47;97185.59;5033582;28;20025;-28
2021/09/23 04:21:05;;;;;;;1.08;0.98;;;;;;;26.35;32.40;97190.84;5037272;28;20514;-31
2021/09/23 04:23:31;;;;;;;1.15;0.82;;;;;;;26.32;32.39;97177.03;5033075;28;20032;-29
2021/09/23 04:25:56;;;;;;;2.00;0.88;;;;;;;26.34;32.38;97183.91;5030663;28;20340;-29
2021/09/23 04:28:21;;;;;;;4.50;1.23;;;;;;;26.34;32.31;97191.78;5032609;28;20040;-30
2021/09/23 04:30:47;;;;;;;4.25;1.27;;;;;;;26.33;32.38;97184.81;5031268;28;20052;-29
2021/09/23 04:33:12;;;;;;;3.63;1.20;;;;;;;26.32;32.33;97172.59;5028548;28;20040;-26
2021/09/23 04:35:38;;;;;;;1.92;1.08;;;;;;;26.33;32.15;97182.19;5031073;28;20021;-30
2021/09/23 04:38:03;;;;;;;2.42;1.10;;;;;;;26.31;32.25;97177.94;5027431;28;20025;-28
2021/09/23 04:40:28;;;;;;;3.97;1.20;;;;;;;26.30;32.16;97168.34;5026237;28;20036;-32
2021/09/23 04:42:54;;;;;;;1.98;1.20;;;;;;;26.29;32.12;97167.50;5028816;28;20029;-38
2021/09/23 04:45:19;;;;;;;1.08;1.00;;;;;;;26.29;32.27;97157.00;5018514;28;20045;-29
2021/09/23 04:47:45;;;;;;;1.73;1.25;;;;;;;26.28;32.33;97163.16;5024253;28;20082;-29
2021/09/23 04:50:10;;;;;;;3.50;1.27;;;;;;;26.29;32.19;97154.38;5026391;28;22631;-29
2021/09/23 04:52:35;;;;;;;2.40;1.23;;;;;;;26.29;32.39;97151.75;5023793;28;20029;-27
2021/09/23 04:55:01;;;;;;;2.88;1.35;;;;;;;26.30;32.19;97153.44;5028133;28;20498;-28
2021/09/23 04:57:29;;;;;;;2.15;1.30;;;;;;;26.31;32.39;97146.41;5024721;28;20076;-29
2021/09/23 04:59:54;;;;;;;8.07;2.05;;;;;;;26.31;32.33;97143.78;5025556;28;20027;-28
2021/09/23 05:02:20;;;;;;;2.83;1.70;;;;;;;26.31;32.32;97143.78;5026567;28;20033;-27
2021/09/23 05:04:47;;;;;;;4.35;2.08;;;;;;;26.31;32.37;97149.06;5026353;28;20414;-26
2021/09/23 05:07:12;;;;;;;3.83;2.17;;;;;;;26.30;32.31;97147.31;5030407;28;20515;-27
2021/09/23 05:09:38;;;;;;;5.25;1.98;;;;;;;26.30;32.11;97148.19;5024477;28;20045;-28
2021/09/23 05:12:04;;;;;;;3.95;2.00;;;;;;;26.30;32.36;97152.56;5023674;28;20564;-28
2021/09/23 05:14:29;;;;;;;5.95;2.30;;;;;;;26.30;32.38;97157.84;5029647;28;20025;-29
2021/09/23 05:16:56;;;;;;;7.15;2.35;;;;;;;26.30;32.28;97152.56;5033693;28;20041;-30
2021/09/23 05:19:21;;;;;;;5.30;2.15;;;;;;;26.30;32.32;97147.31;5027835;28;20041;-27
2021/09/23 05:21:46;;;;;;;7.65;3.25;;;;;;;26.28;32.41;97131.63;5026506;28;20296;-28
2021/09/23 05:24:13;;;;;;;7.82;2.35;;;;;;;26.28;32.30;97129.00;5026547;28;20029;-29
2021/09/23 05:26:39;;;;;;;4.60;2.00;;;;;;;26.27;32.34;97129.94;5025675;28;20150;-29
2021/09/23 05:29:04;;;;;;;5.53;2.10;;;;;;;26.27;32.41;97137.81;5024012;28;20033;-26
2021/09/23 05:31:29;;;;;;;3.95;1.83;;;;;;;26.27;32.31;97127.31;5026572;28;20029;-34
2021/09/23 05:33:56;;;;;;;4.10;1.98;;;;;;;26.27;32.35;97121.22;5023283;28;20410;-25
2021/09/23 05:36:21;;;;;;;6.25;2.53;;;;;;;26.27;32.38;97124.69;5024787;28;20043;-27
2021/09/23 05:38:47;;;;;;;5.53;2.40;;;;;;;26.28;32.42;97123.75;5028252;28;20030;-29
2021/09/23 05:41:12;;;;;;;4.32;2.10;;;;;;;26.27;32.35;97124.69;5027318;28;20741;-29
2021/09/23 05:43:39;;;;;;;5.78;2.25;;;;;;;26.27;32.26;97122.06;5026341;28;20029;-29
2021/09/23 05:46:05;;;;;;;5.53;2.08;;;;;;;26.28;32.38;97117.66;5025910;28;20298;-29
2021/09/23 05:48:30;;;;;;;4.25;2.35;;;;;;;26.27;32.46;97106.28;5009244;28;20534;-27
2021/09/23 05:50:55;;;;;;;6.20;2.60;;;;;;;26.27;32.43;97105.47;5029496;28;20684;-28
2021/09/23 05:53:21;;;;;;;4.40;2.00;;;;;;;26.27;32.39;97115.97;5027689;28;20043;-26
2021/09/23 05:55:46;;;;;;;6.57;2.28;;;;;;;26.26;32.59;97104.59;5026058;28;20166;-26
2021/09/23 05:58:12;;;;;;;4.47;2.00;;;;;;;26.26;32.45;97115.13;5027536;28;20028;-28
2021/09/23 06:00:37;;;;;;;4.97;2.20;;;;;;;26.25;32.61;97108.13;5029134;28;20256;-29
2021/09/23 06:03:02;;;;;;;4.57;2.05;;;;;;;26.26;32.72;97109.00;5034129;28;20416;-27
2021/09/23 06:05:28;;;;;;;4.25;1.95;;;;;;;26.25;32.82;97102.88;5033455;28;20321;-29
2021/09/23 06:07:53;;;;;;;3.83;1.98;;;;;;;26.25;32.81;97097.63;5036963;28;20034;-27
2021/09/23 06:10:19;;;;;;;8.98;2.40;;;;;;;26.25;32.77;97089.75;5027547;28;20288;-26
2021/09/23 06:12:44;;;;;;;6.00;2.10;;;;;;;26.25;32.90;97092.38;5032026;28;20025;-29
2021/09/23 06:15:11;;;;;;;4.90;2.20;;;;;;;26.25;32.83;97100.25;5032512;28;20488;-28
2021/09/23 06:17:36;;;;;;;5.15;2.10;;;;;;;26.27;32.79;97094.97;5026609;28;20021;-30
2021/09/23 06:20:03;;;;;;;5.25;2.20;;;;;;;26.28;32.71;97096.66;5029143;28;20510;-30
2021/09/23 06:22:28;;;;;;;6.10;2.28;;;;;;;26.28;32.81;97100.09;5029903;28;20068;-29
2021/09/23 06:24:54;;;;;;;4.65;2.47;;;;;;;26.29;32.76;97099.19;5032760;28;20430;-26
2021/09/23 06:27:19;;;;;;;4.55;2.55;;;;;;;26.30;32.75;97100.91;5036897;28;20033;-27
2021/09/23 06:29:44;;;;;;;8.27;2.78;;;;;;;26.31;32.86;97094.72;5034674;28;20034;-28
2021/09/23 06:32:10;;;;;;;7.00;2.63;;;;;;;26.33;32.74;97095.50;5035318;28;20029;-28
2021/09/23 06:34:35;;;;;;;9.55;2.90;;;;;;;26.34;32.81;97096.31;5035769;28;20474;-28
2021/09/23 06:37:01;;;;;;;10.20;3.10;;;;;;;26.34;32.82;97107.69;5037031;28;20037;-29
2021/09/23 06:39:26;;;;;;;6.70;2.50;;;;;;;26.35;32.36;97098.88;5035411;28;20538;-26
2021/09/23 06:41:52;;;;;;;9.30;2.78;;;;;;;26.35;32.51;97104.13;5034232;28;20487;-30
2021/09/23 06:44:17;;;;;;;10.88;3.40;;;;;;;26.35;32.57;97108.53;5031709;28;20036;-30
2021/09/23 06:46:43;;;;;;;6.25;2.83;;;;;;;26.34;32.50;97109.47;5035114;28;20021;-26
2021/09/23 06:49:08;;;;;;;5.55;2.63;;;;;;;26.35;32.68;97108.53;5030881;28;20060;-26
2021/09/23 06:51:33;;;;;;;7.10;2.97;;;;;;;26.35;32.31;97109.38;5038929;28;20033;-30
2021/09/23 06:53:59;;;;;;;10.43;3.50;;;;;;;26.35;31.93;97108.53;5036084;28;20052;-28
2021/09/23 06:56:24;;;;;;;5.20;3.40;;;;;;;26.33;31.76;97111.25;5037255;28;20060;-28
2021/09/23 06:58:50;;;;;;;10.55;4.00;;;;;;;26.34;31.52;97104.22;5032161;28;20030;-25
2021/09/23 07:01:15;;;;;;;9.05;3.60;;;;;;;26.31;31.28;97102.59;5034583;28;20025;-29
2021/09/23 07:03:41;;;;;;;7.72;3.35;;;;;;;26.32;31.23;97103.44;5034367;28;20436;-27
2021/09/23 07:06:06;;;;;;;7.95;3.45;;;;;;;26.32;31.10;97103.44;5032694;28;20026;-28
2021/09/23 07:08:32;;;;;;;6.90;3.20;;;;;;;26.31;31.23;97101.75;5035324;28;20032;-30
2021/09/23 07:10:57;;;;;;;7.15;3.50;;;;;;;26.30;31.07;97111.41;5035553;28;20062;-29
2021/09/23 07:13:22;;;;;;;6.32;3.40;;;;;;;26.29;31.06;97109.72;5036162;28;20029;-28
2021/09/23 07:15:48;;;;;;;7.93;4.03;;;;;;;26.29;30.89;97107.09;5038638;28;20037;-29
2021/09/23 07:18:13;;;;;;;11.13;3.47;;;;;;;26.28;31.03;97108.00;5032946;28;20036;-29
2021/09/23 07:20:39;;;;;;;11.70;3.40;;;;;;;26.27;30.87;97103.66;5031185;28;20048;-29
2021/09/23 07:23:04;;;;;;;6.97;3.42;;;;;;;26.26;30.93;97099.34;5037474;28;20078;-28
2021/09/23 07:25:30;;;;;;;6.22;3.00;;;;;;;26.28;31.03;97104.53;5038174;28;20041;-28
2021/09/23 07:27:55;;;;;;;5.03;3.22;;;;;;;26.28;30.91;97104.53;5033599;28;20048;-28
2021/09/23 07:30:21;;;;;;;8.52;3.22;;;;;;;26.28;31.11;97105.34;5036222;28;20053;-30
2021/09/23 07:32:47;;;;;;;6.47;3.10;;;;;;;26.28;31.31;97105.34;5031771;28;20119;-29
2021/09/23 07:35:12;;;;;;;6.53;2.88;;;;;;;26.29;31.13;97103.59;5030412;28;20035;-28
2021/09/23 07:37:38;;;;;;;5.15;3.00;;;;;;;26.29;31.24;97103.59;5029694;28;20033;-26
2021/09/23 07:40:05;;;;;;;9.40;3.20;;;;;;;26.29;31.30;97104.47;5029736;28;20029;-29
2021/09/23 07:42:30;;;;;;;6.50;3.15;;;;;;;26.30;31.04;97105.28;5028872;28;20495;-27
2021/09/23 07:44:55;;;;;;;5.88;2.45;;;;;;;26.29;31.58;97099.19;5027094;28;20040;-28
2021/09/23 07:47:21;;;;;;;8.50;2.40;;;;;;;26.30;31.92;97106.16;5027469;28;20025;-28
2021/09/23 07:49:46;;;;;;;6.57;2.33;;;;;;;26.31;32.09;97107.84;5029806;28;20029;-26
2021/09/23 07:52:12;;;;;;;8.07;2.42;;;;;;;26.34;32.09;97112.09;5027598;28;20603;-30
2021/09/23 07:54:37;;;;;;;5.38;2.05;;;;;;;26.35;32.25;97106.75;5027197;28;20457;-29
2021/09/23 07:57:03;;;;;;;5.05;2.25;;;;;;;26.38;32.35;97112.81;5030637;28;20310;-27
2021/09/23 07:59:28;;;;;;;4.40;2.45;;;;;;;26.40;32.37;97110.94;5026800;28;20029;-28
2021/09/23 08:01:54;;;;;;;4.10;2.28;;;;;;;26.41;32.33;97113.50;5028146;28;20036;-27
2021/09/23 08:04:19;;;;;;;3.83;2.30;;;;;;;26.44;32.46;97107.22;5029762;28;20049;-28
2021/09/23 08:06:45;;;;;;;6.13;2.20;;;;;;;26.46;32.39;97115.88;5025543;28;20032;-29
2021/09/23 08:09:10;;;;;;;4.47;2.15;;;;;;;26.48;32.46;97114.88;5026858;28;20633;-27
2021/09/23 08:11:36;;;;;;;4.40;2.00;;;;;;;26.52;32.44;97120.84;5030202;28;20025;-27
2021/09/23 08:14:01;;;;;;;5.20;1.80;;;;;;;26.54;32.63;97112.88;5029556;28;20082;-27
2021/09/23 08:16:26;;;;;;;6.75;2.03;;;;;;;26.55;32.62;97102.25;5027180;28;20017;-29
2021/09/23 08:18:52;;;;;;;3.83;2.10;;;;;;;26.58;32.66;97102.09;5025301;28;20224;-32
2021/09/23 08:21:17;;;;;;;4.18;2.03;;;;;;;26.59;32.78;97106.44;5028806;28;20060;-27
2021/09/23 08:23:43;;;;;;;5.85;1.98;;;;;;;26.62;32.64;97115.97;5026752;28;20461;-30
2021/09/23 08:26:09;;;;;;;5.18;2.33;;;;;;;26.65;32.70;97114.94;5023154;28;22259;-27
2021/09/23 08:28:35;;;;;;;3.10;1.77;;;;;;;26.67;32.75;97116.56;5028160;28;20419;-27
2021/09/23 08:31:01;;;;;;;4.47;2.00;;;;;;;26.69;32.84;97112.06;5027570;28;20753;-28
2021/09/23 08:33:27;;;;;;;11.00;3.15;;;;;;;26.69;32.05;97112.06;5025060;28;20493;-27
2021/09/23 08:35:52;;;;;;;10.98;3.38;;;;;;;26.67;31.59;97106.06;5028111;28;20057;-27
2021/09/23 08:38:19;;;;;;;5.40;2.97;;;;;;;26.64;31.14;97102.72;5027444;28;20040;-29
2021/09/23 08:40:47;;;;;;;11.88;3.20;;;;;;;26.60;30.69;97105.53;5034012;28;20025;-27
2021/09/23 08:43:13;;;;;;;8.05;2.97;;;;;;;26.55;30.50;97099.63;5031511;28;20036;-29
2021/09/23 08:45:38;;;;;;;8.50;2.35;;;;;;;26.51;30.65;97108.63;5035593;28;20055;-28
2021/09/23 08:48:04;;;;;;;4.88;2.33;;;;;;;26.46;30.83;97100.09;5032154;28;20041;-27
2021/09/23 08:50:29;;;;;;;5.78;2.22;;;;;;;26.44;30.86;97096.72;5036408;28;20029;-29
2021/09/23 08:52:55;;;;;;;3.67;1.98;;;;;;;26.44;31.02;97096.72;5032724;28;20043;-29
2021/09/23 08:55:27;;;;;;;7.45;2.63;;;;;;;26.44;31.06;97086.22;5035556;28;20029;-31
2021/09/23 08:57:53;;;;;;;5.22;2.50;;;;;;;26.43;31.10;97087.16;5034096;28;20700;-26
2021/09/23 09:00:21;;;;;;;7.35;2.63;;;;;;;26.43;31.18;97081.88;5027368;28;20743;-28
2021/09/23 09:02:59;;;;;;;6.72;2.63;;;;;;;26.43;31.21;97081.88;5035309;28;20399;-31
2021/09/23 09:05:24;;;;;;;5.18;2.20;;;;;;;26.45;31.13;97074.75;5034673;28;20029;-29
2021/09/23 09:07:49;;;;;;;5.68;2.50;;;;;;;26.45;31.29;97082.66;5032827;28;20079;-28
2021/09/23 09:10:15;;;;;;;4.80;2.40;;;;;;;26.46;31.49;97084.34;5013726;28;20040;-31
2021/09/23 09:12:41;;;;;;;4.88;2.30;;;;;;;26.46;31.22;97084.34;5032867;28;20103;-29
2021/09/23 09:15:07;;;;;;;7.20;2.53;;;;;;;26.46;30.97;97085.19;5032095;28;20113;-29
2021/09/23 09:17:36;;;;;;;10.23;2.60;;;;;;;26.46;30.90;97087.81;5031776;28;20029;-28
2021/09/23 09:20:03;;;;;;;5.70;2.33;;;;;;;26.48;31.10;97082.50;5020144;28;20060;-30
2021/09/23 09:22:30;;;;;;;7.43;2.55;;;;;;;26.48;31.21;97083.31;5032747;28;20439;-28
2021/09/23 09:24:56;;;;;;;6.70;2.50;;;;;;;26.48;31.30;97078.06;5032816;28;20026;-29
2021/09/23 09:27:25;;;;;;;6.07;2.33;;;;;;;26.50;31.35;97074.53;5032283;28;20014;-26
2021/09/23 09:29:58;;;;;;;7.18;2.58;;;;;;;26.50;31.34;97067.47;5031976;28;20029;-26
2021/09/23 09:32:37;;;;;;;5.25;2.40;;;;;;;26.51;31.42;97071.84;5034489;28;20687;-29
2021/09/23 09:35:03;;;;;;;5.35;2.30;;;;;;;26.52;31.30;97067.41;5030030;28;20095;-28
2021/09/23 09:37:32;;;;;;;6.90;2.60;;;;;;;26.52;31.22;97059.53;5012576;28;20054;-28
2021/09/23 09:39:58;;;;;;;5.22;2.38;;;;;;;26.52;31.38;97060.38;5035108;28;20091;-28
2021/09/23 09:42:26;;;;;;;8.07;2.55;;;;;;;26.52;31.33;97049.88;5028752;28;20448;-27
2021/09/23 09:44:55;;;;;;;5.20;1.90;;;;;;;26.53;31.14;97054.19;5032563;28;20089;-29
2021/09/23 09:47:29;;;;;;;4.28;2.28;;;;;;;26.53;31.36;97059.44;5039442;28;20075;-27
2021/09/23 09:49:55;;;;;;;6.35;2.50;;;;;;;26.54;31.24;97053.25;5031787;28;20373;-26
2021/09/23 09:52:29;;;;;;;6.13;2.40;;;;;;;26.54;31.28;97045.38;5038206;28;20290;-25
2021/09/23 09:55:08;;;;;;;6.30;2.40;;;;;;;26.55;31.38;97041.81;5024759;28;20124;-28
2021/09/23 09:57:35;;;;;;;5.30;2.25;;;;;;;26.56;31.42;97048.78;5022098;28;20024;-27
2021/09/23 10:00:01;;;;;;;4.88;2.10;;;;;;;26.56;31.50;97045.28;5022991;28;20040;-27
2021/09/23 10:02:30;;;;;;;5.30;2.13;;;;;;;26.55;31.42;97033.09;5028321;28;20033;-29
2021/09/23 10:04:58;;;;;;;5.05;2.22;;;;;;;26.55;31.47;97036.56;5013946;28;20032;-28
2021/09/23 10:07:25;;;;;;;5.65;2.08;;;;;;;26.57;31.57;97032.09;5028352;28;20032;-27
2021/09/23 10:09:51;;;;;;;5.30;1.90;;;;;;;26.57;31.43;97028.59;5016208;28;20025;-28
2021/09/23 10:12:16;;;;;;;4.80;1.90;;;;;;;26.58;31.44;97017.16;5029415;28;20330;-30
2021/09/23 10:14:42;;;;;;;2.83;1.63;;;;;;;26.58;31.54;97020.63;5030852;28;20029;-26
2021/09/23 10:17:07;;;;;;;3.40;2.03;;;;;;;26.59;31.47;97016.22;5007976;28;20044;-27
2021/09/23 10:19:35;;;;;;;4.50;1.88;;;;;;;26.59;31.57;97017.06;5021776;28;20029;-28
2021/09/23 10:22:01;;;;;;;6.20;2.10;;;;;;;26.57;31.41;97018.94;5025250;28;20030;-28
2021/09/23 10:24:27;;;;;;;6.78;1.80;;;;;;;26.60;31.44;97013.53;5025758;28;20039;-26
2021/09/23 10:26:52;;;;;;;4.15;1.88;;;;;;;26.61;31.44;97014.34;5008858;28;20037;-30
2021/09/23 10:29:18;;;;;;;4.47;1.85;;;;;;;26.61;31.33;97007.34;5025556;28;20333;-26
2021/09/23 10:31:44;;;;;;;3.92;1.70;;;;;;;26.61;31.58;97015.22;5024307;28;21317;-28
2021/09/23 10:34:09;;;;;;;3.58;2.00;;;;;;;26.61;31.55;97004.72;5025467;28;20059;-27
2021/09/23 10:36:35;;;;;;;3.83;2.00;;;;;;;26.62;31.52;97010.81;5024528;28;20503;-29
2021/09/23 10:39:04;;;;;;;3.60;2.00;;;;;;;26.64;31.52;97002.84;5028647;28;20026;-29
2021/09/23 10:41:30;;;;;;;3.50;1.95;;;;;;;26.64;31.53;97008.09;5028552;28;20116;-26
2021/09/23 10:43:56;;;;;;;2.80;1.70;;;;;;;26.64;31.83;97008.94;5022007;28;20036;-26
2021/09/23 10:46:24;;;;;;;4.07;1.77;;;;;;;26.65;31.74;97009.81;5025008;28;20477;-29
2021/09/23 10:48:50;;;;;;;2.05;1.58;;;;;;;26.66;31.60;97014.13;5028267;28;20040;-27
2021/09/23 10:51:16;;;;;;;4.38;1.73;;;;;;;26.67;31.47;97013.19;5010702;28;20047;-30
2021/09/23 10:53:53;;;;;;;2.28;1.58;;;;;;;26.68;31.73;97014.88;5024945;28;20071;-27
2021/09/23 10:56:19;;;;;;;6.18;1.90;;;;;;;26.68;31.71;97020.13;5027322;28;20062;-26
2021/09/23 10:58:47;;;;;;;3.20;1.63;;;;;;;26.68;31.75;97010.47;5025235;28;20034;-30
2021/09/23 11:01:29;;;;;;;3.70;1.88;;;;;;;26.69;31.62;97009.53;5024903;28;20574;-28
2021/09/23 11:03:57;;;;;;;3.50;2.00;;;;;;;26.69;31.66;97001.66;5024816;28;20040;-30
2021/09/23 11:06:40;;;;;;;3.92;1.80;;;;;;;26.70;31.61;96999.88;5023234;28;20034;-25
2021/09/23 11:09:26;;;;;;;3.60;1.83;;;;;;;26.70;31.66;97008.59;5025152;28;20034;-27
2021/09/23 11:11:53;;;;;;;2.72;1.98;;;;;;;26.70;31.58;97007.78;5025699;28;20151;-29
2021/09/23 11:14:18;;;;;;;2.45;1.60;;;;;;;26.72;31.68;97000.66;5037011;28;20523;-27
2021/09/23 11:16:48;;;;;;;2.33;1.70;;;;;;;26.71;31.64;96999.81;5026066;28;20037;-28
2021/09/23 11:19:19;;;;;;;3.10;1.80;;;;;;;26.70;31.57;96992.00;5029922;28;20068;-26
2021/09/23 11:21:46;;;;;;;3.45;1.90;;;;;;;26.71;31.65;96988.44;5027990;28;20037;-26
2021/09/23 11:24:11;;;;;;;3.22;1.70;;;;;;;26.72;31.54;96987.50;5022564;28;20016;-28
2021/09/23 11:26:36;;;;;;;4.75;1.70;;;;;;;26.74;31.46;96983.03;5030695;28;20024;-28
2021/09/23 11:29:02;;;;;;;4.10;1.90;;;;;;;26.73;31.52;96971.66;5010326;28;20097;-27